Pourquoi Pas — FMCY — position and weather

sailwx.info

Track history (hours):
 
Tides and Currents Weather Stations Pressure Air Temp Water Temp Dewpoint Dewpoint Depression Visibility Wind Speed Wind Dir Waves Ship Positions

Oceanographic research ship Pourquoi Pas (France)

Last reported at 2019-Sep-11 23:14 UTC. Time now 2019-Sep-20 10:18 UTC.
Position N 61°05' E 002°08'.
Warning: this ship's position is 8 days out of date.

Length 108 m; beam 20 m.

Type: Dredging. MMSI: 228207600.

Date/timePositionNaut miles runAvg speedWind from/ knotsBaromVisibWave heightAir tempDewpointWater temp
2019-Sep-11 23:14N 61°05' E 002°08'210.2
2019-Sep-11 23:01N 61°03' E 002°08'25311.0
2019-Sep-11 00:00N 56°51' E 002°46'2911.8
2019-Sep-10 21:30N 56°22' E 002°58'22710.8
2019-Sep-10 00:26N 52°35' E 002°39'613.1
2019-Sep-09 23:59N 52°29' E 002°39'1213.1
2019-Sep-09 23:02N 52°16' E 002°39'113.0
2019-Sep-09 22:59N 52°16' E 002°39'4611.7
2019-Sep-09 19:03N 51°32' E 002°16'111.7
2019-Sep-09 18:58N 51°32' E 002°15'511.4
2019-Sep-09 18:30N 51°28' E 002°09'511.1
2019-Sep-09 18:01N 51°23' E 002°04'611.0
2019-Sep-09 17:30N 51°19' E 001°58'510.9
2019-Sep-09 17:00N 51°15' E 001°52'510.8
2019-Sep-09 16:30N 51°11' E 001°46'510.8
2019-Sep-09 16:01N 51°07' E 001°41'510.8
2019-Sep-09 15:30N 51°02' E 001°36'511.0
2019-Sep-09 15:00N 50°58' E 001°31'611.1
2019-Sep-09 14:30N 50°53' E 001°26'911.4
2019-Sep-09 13:44N 50°45' E 001°23'10211.6
2019-Sep-09 04:53N 50°07' W 001°07'513.6
2019-Sep-09 04:30N 50°05' W 001°15'713.8
2019-Sep-09 04:00N 50°03' W 001°25'713.8
2019-Sep-09 03:30N 50°02' W 001°35'713.6
2019-Sep-09 03:01N 50°00' W 001°46'115 9.3
2019-Sep-08 14:35N 49°02' W 004°19'60 2.2
2019-Sep-07 11:59N 48°28' W 005°33'5 9.8
2019-Sep-07 11:30N 48°25' W 005°27'910.1
2019-Sep-07 10:35N 48°20' W 005°16'110.5
2019-Sep-07 10:30N 48°19' W 005°15'510.5
2019-Sep-07 10:01N 48°16' W 005°09'510.3
2019-Sep-07 09:30N 48°16' W 005°01'510.8
2019-Sep-07 09:00N 48°16' W 004°53'511.0
2019-Sep-07 08:30N 48°17' W 004°45'510.8
2019-Sep-07 08:01N 48°19' W 004°37'5 9.4
2019-Sep-07 07:31N 48°21' W 004°31'2 4.5
2019-Sep-07 06:59N 48°23' W 004°29'0 0.0
2019-Sep-07 06:29N 48°23' W 004°29'0 0.0
2019-Sep-07 05:59N 48°23' W 004°29'0 0.0
2019-Sep-07 05:29N 48°23' W 004°29'0 0.0
2019-Sep-07 04:59N 48°23' W 004°29'0 0.0
2019-Sep-07 04:29N 48°23' W 004°29'0 0.0
2019-Sep-07 03:59N 48°23' W 004°29'0 0.0
2019-Sep-07 03:29N 48°23' W 004°29'0 0.0
2019-Sep-07 02:59N 48°23' W 004°29'0 0.0
2019-Sep-07 02:29N 48°23' W 004°29'0 0.0
2019-Sep-07 01:59N 48°23' W 004°29'0 0.0
2019-Sep-07 01:29N 48°23' W 004°29'0 0.0
2019-Sep-07 00:59N 48°23' W 004°29'0 0.0
2019-Sep-07 00:29N 48°23' W 004°29'0 0.0
2019-Sep-06 23:59N 48°23' W 004°29'0 0.0
2019-Sep-06 23:29N 48°23' W 004°29'0 0.0
2019-Sep-06 22:59N 48°23' W 004°29'0 0.0
2019-Sep-06 22:29N 48°23' W 004°29'0 0.0
2019-Sep-06 21:59N 48°23' W 004°29'0 0.0
2019-Sep-06 21:28N 48°23' W 004°29'0 0.0
2019-Sep-06 20:59N 48°23' W 004°29'0 0.0
2019-Sep-06 20:28N 48°23' W 004°29'0 0.0
2019-Sep-06 19:59N 48°23' W 004°29'0 0.0
2019-Sep-06 19:28N 48°23' W 004°29'0 0.0
2019-Sep-06 18:58N 48°23' W 004°29'0 0.0
2019-Sep-06 18:28N 48°23' W 004°29'0 0.0
2019-Sep-06 17:58N 48°23' W 004°29'0 0.0
2019-Sep-06 17:28N 48°23' W 004°29'0 0.0
2019-Sep-06 16:58N 48°23' W 004°29'0 0.0
2019-Sep-06 16:28N 48°23' W 004°29'0 0.0
2019-Sep-06 15:58N 48°23' W 004°29'0 0.0
2019-Sep-06 15:28N 48°23' W 004°29'0 0.0
2019-Sep-06 14:58N 48°23' W 004°29'0 0.0
2019-Sep-06 14:28N 48°23' W 004°29'0 0.0
2019-Sep-06 13:58N 48°23' W 004°29'0 0.0
2019-Sep-06 13:28N 48°23' W 004°29'0 0.0
2019-Sep-06 12:58N 48°23' W 004°29'0 0.0
2019-Sep-06 12:28N 48°23' W 004°29'0 0.0
2019-Sep-06 11:58N 48°23' W 004°29'0 0.0
2019-Sep-06 11:28N 48°23' W 004°29'0 0.0
2019-Sep-06 10:58N 48°23' W 004°29'0 0.0
2019-Sep-06 10:28N 48°23' W 004°29'0 0.0
2019-Sep-06 09:58N 48°23' W 004°29'0 0.0
2019-Sep-06 09:28N 48°23' W 004°29'0 0.0
2019-Sep-06 08:58N 48°23' W 004°29'0 0.0
2019-Sep-06 08:28N 48°23' W 004°29'0 0.0
2019-Sep-06 07:58N 48°23' W 004°29'0 0.0
2019-Sep-06 07:28N 48°23' W 004°29'0 0.0
2019-Sep-06 06:58N 48°23' W 004°29'0 0.0
2019-Sep-06 06:28N 48°23' W 004°29'0 0.0
2019-Sep-06 05:58N 48°23' W 004°29'0 0.0
2019-Sep-06 05:28N 48°23' W 004°29'0 0.0
2019-Sep-06 04:58N 48°23' W 004°29'0 0.0
2019-Sep-06 04:28N 48°23' W 004°29'0 0.0
2019-Sep-06 03:58N 48°23' W 004°29'0 0.0
2019-Sep-06 03:28N 48°23' W 004°29'0 0.0
2019-Sep-06 02:58N 48°23' W 004°29'0 0.0
2019-Sep-06 02:28N 48°23' W 004°29'0 0.0
2019-Sep-06 01:58N 48°23' W 004°29'0 0.0
2019-Sep-06 01:28N 48°23' W 004°29'0 0.0
2019-Sep-06 00:58N 48°23' W 004°29'0 0.0
2019-Sep-06 00:28N 48°23' W 004°29'0 0.0
2019-Sep-05 23:58N 48°23' W 004°29'0 0.0
2019-Sep-05 23:28N 48°23' W 004°29'0 0.0
2019-Sep-05 22:58N 48°23' W 004°29'0 0.0
2019-Sep-05 22:28N 48°23' W 004°29'0 0.0
2019-Sep-05 21:58N 48°23' W 004°29'0 0.0
2019-Sep-05 21:28N 48°23' W 004°29'0 0.0
2019-Sep-05 20:58N 48°23' W 004°29'0 0.0
2019-Sep-05 20:28N 48°23' W 004°29'0 0.0
2019-Sep-05 19:58N 48°23' W 004°29'0 0.0
2019-Sep-05 19:28N 48°23' W 004°29'0 0.0
2019-Sep-05 18:58N 48°23' W 004°29'0 0.0
2019-Sep-05 18:28N 48°23' W 004°29'0 0.0
2019-Sep-05 17:58N 48°23' W 004°29'0 0.0
2019-Sep-05 17:28N 48°23' W 004°29'0 0.0
2019-Sep-05 16:58N 48°23' W 004°29'0 0.0
2019-Sep-05 16:28N 48°23' W 004°29'0 0.0
2019-Sep-05 15:58N 48°23' W 004°29'0 0.0
2019-Sep-05 15:28N 48°23' W 004°29'0 0.0
2019-Sep-05 14:58N 48°23' W 004°29'0 0.0
2019-Sep-05 14:28N 48°23' W 004°29'0 0.0
2019-Sep-05 13:58N 48°23' W 004°29'0 0.0
2019-Sep-05 13:28N 48°23' W 004°29'0 0.0
2019-Sep-05 12:58N 48°23' W 004°29'0 0.0
2019-Sep-05 12:28N 48°23' W 004°29'0 0.0
2019-Sep-05 11:58N 48°23' W 004°29'0 0.0
2019-Sep-05 11:28N 48°23' W 004°29'0 0.0
2019-Sep-05 10:58N 48°23' W 004°29'0 0.0
2019-Sep-05 10:28N 48°23' W 004°29'0 0.0
2019-Sep-05 09:58N 48°23' W 004°29'0 0.0
2019-Sep-05 09:28N 48°23' W 004°29'0 0.0
2019-Sep-05 08:58N 48°23' W 004°29'0 0.0
2019-Sep-05 08:28N 48°23' W 004°29'0 0.0
2019-Sep-05 07:58N 48°23' W 004°29'0 0.0
2019-Sep-05 07:28N 48°23' W 004°29'0 0.0
2019-Sep-05 06:55N 48°23' W 004°29'0 0.0
2019-Sep-05 06:28N 48°23' W 004°29'0 0.0
2019-Sep-05 05:58N 48°23' W 004°29'0 0.0
2019-Sep-05 05:28N 48°23' W 004°29'0 0.0
2019-Sep-05 04:58N 48°23' W 004°29'0 0.0
2019-Sep-05 04:28N 48°23' W 004°29'0 0.0
2019-Sep-05 03:58N 48°23' W 004°29'0 0.0
2019-Sep-05 03:28N 48°23' W 004°29'0 0.0
2019-Sep-05 02:58N 48°23' W 004°29'0 0.0
2019-Sep-05 01:58N 48°23' W 004°29'0 0.0
2019-Sep-05 01:28N 48°23' W 004°29'0 0.0
2019-Sep-05 00:58N 48°23' W 004°29'0 0.0
2019-Sep-05 00:28N 48°23' W 004°29'0 0.0
2019-Sep-04 23:58N 48°23' W 004°29'0 0.0
2019-Sep-04 23:28N 48°23' W 004°29'0 0.0
2019-Sep-04 22:58N 48°23' W 004°29'0 0.0
2019-Sep-04 22:28N 48°23' W 004°29'0 0.0
2019-Sep-04 21:58N 48°23' W 004°29'0 0.0
2019-Sep-04 21:28N 48°23' W 004°29'0 0.0
2019-Sep-04 20:58N 48°23' W 004°29'0 0.0
2019-Sep-04 20:28N 48°23' W 004°29'0 0.0
2019-Sep-04 19:58N 48°23' W 004°29'0 0.0
2019-Sep-04 19:28N 48°23' W 004°29'0 0.0
2019-Sep-04 18:58N 48°23' W 004°29'0 0.0
2019-Sep-04 18:28N 48°23' W 004°29'0 0.0
2019-Sep-04 17:58N 48°23' W 004°29'0 0.0
2019-Sep-04 17:28N 48°23' W 004°29'0 0.0
2019-Sep-04 16:58N 48°23' W 004°29'0 0.0
2019-Sep-04 16:28N 48°23' W 004°29'0 0.0
2019-Sep-04 15:58N 48°23' W 004°29'0 0.0
2019-Sep-04 15:28N 48°23' W 004°29'0 0.0
2019-Sep-04 14:58N 48°23' W 004°29'0 0.0
2019-Sep-04 14:25N 48°23' W 004°29'0 0.0
2019-Sep-04 13:58N 48°23' W 004°29'0 0.0
2019-Sep-04 13:28N 48°23' W 004°29'0 0.0
2019-Sep-04 12:58N 48°23' W 004°29'0 0.0
2019-Sep-04 12:28N 48°23' W 004°29'0 0.0
2019-Sep-04 11:58N 48°23' W 004°29'0 0.0
2019-Sep-04 11:28N 48°23' W 004°29'0 0.0
2019-Sep-04 10:58N 48°23' W 004°29'0 0.0
2019-Sep-04 10:28N 48°23' W 004°29'0 0.0
2019-Sep-04 09:58N 48°23' W 004°29'0 0.0
2019-Sep-04 09:28N 48°23' W 004°29'0 0.0
2019-Sep-04 08:58N 48°23' W 004°29'0 0.0
2019-Sep-04 08:28N 48°23' W 004°29'0 0.0
2019-Sep-04 07:58N 48°23' W 004°29'0 0.0
2019-Sep-04 07:28N 48°23' W 004°29'0 0.0
2019-Sep-04 06:58N 48°23' W 004°29'0 0.0
2019-Sep-04 06:28N 48°23' W 004°29'0 0.0
2019-Sep-04 05:58N 48°23' W 004°29'0 0.0
2019-Sep-04 05:28N 48°23' W 004°29'0 0.0
2019-Sep-04 04:58N 48°23' W 004°29'0 0.0
2019-Sep-04 04:28N 48°23' W 004°29'0 0.0
2019-Sep-04 03:58N 48°23' W 004°29'0 0.0
2019-Sep-04 03:28N 48°23' W 004°29'0 0.0
2019-Sep-04 02:58N 48°23' W 004°29'0 0.0
2019-Sep-04 02:28N 48°23' W 004°29'0 0.0
2019-Sep-04 01:58N 48°23' W 004°29'0 0.0
2019-Sep-04 01:28N 48°23' W 004°29'0 0.0
2019-Sep-04 00:58N 48°23' W 004°29'0 0.0
2019-Sep-04 00:28N 48°23' W 004°29'0 0.0
2019-Sep-03 23:58N 48°23' W 004°29'0 0.0
2019-Sep-03 23:28N 48°23' W 004°29'0 0.0
2019-Sep-03 22:58N 48°23' W 004°29'0 0.0
2019-Sep-03 22:28N 48°23' W 004°29'0 0.0
2019-Sep-03 21:58N 48°23' W 004°29'0 0.0
2019-Sep-03 21:28N 48°23' W 004°29'0 0.0
2019-Sep-03 20:58N 48°23' W 004°29'0 0.0
2019-Sep-03 20:28N 48°23' W 004°29'0 0.0
2019-Sep-03 19:58N 48°23' W 004°29'0 0.0
2019-Sep-03 19:28N 48°23' W 004°29'0 0.0
2019-Sep-03 18:58N 48°23' W 004°29'0 0.0
2019-Sep-03 18:28N 48°23' W 004°29'0 0.0
2019-Sep-03 17:58N 48°23' W 004°29'0 0.0
2019-Sep-03 17:28N 48°23' W 004°29'0 0.0
2019-Sep-03 16:58N 48°23' W 004°29'0 0.6
2019-Sep-03 16:30N 48°23' W 004°29'4 7.5
2019-Sep-03 16:00N 48°21' W 004°34'715.0
2019-Sep-03 15:30N 48°18' W 004°44'714.0
2019-Sep-03 15:00N 48°14' W 004°53'714.2
2019-Sep-03 14:30N 48°09' W 005°01'714.0
2019-Sep-03 14:00N 48°05' W 005°09'713.3
2019-Sep-03 13:30N 48°01' W 005°17'612.7
2019-Sep-03 13:00N 47°57' W 005°24'712.6
2019-Sep-03 12:29N 47°52' W 005°32'613.1
2019-Sep-03 12:00N 47°48' W 005°38'712.1
2019-Sep-03 11:26N 47°43' W 005°46'512.1
2019-Sep-03 11:00N 47°40' W 005°52'612.8
2019-Sep-03 10:30N 47°36' W 005°59'612.5
2019-Sep-03 10:00N 47°32' W 006°06'712.0
2019-Sep-03 09:27N 47°27' W 006°13'613.0
2019-Sep-03 09:00N 47°23' W 006°20'713.6
2019-Sep-03 08:30N 47°19' W 006°27'714.1
2019-Sep-03 08:00N 47°14' W 006°35'713.7
2019-Sep-03 07:30N 47°09' W 006°42'713.5
2019-Sep-03 07:00N 47°05' W 006°50'713.5
2019-Sep-03 06:30N 47°01' W 006°57'713.4
2019-Sep-03 06:00N 46°56' W 007°05'613.1
2019-Sep-03 05:30N 46°52' W 007°12'812.9
2019-Sep-03 04:51N 46°46' W 007°21'813.1
2019-Sep-03 04:13N 46°41' W 007°30'313.6
2019-Sep-03 04:00N 46°39' W 007°33'1313.6
2019-Sep-03 03:01N 46°30' W 007°48'1114.3
2019-Sep-03 02:17N 46°23' W 007°59'  
Track history (hours):
 
Tides and Currents Weather Stations Pressure Air Temp Water Temp Dewpoint Dewpoint Depression Visibility Wind Speed Wind Dir Waves Ship Positions

Oceanographic research ship Pourquoi Pas (France)

Last reported at 2019-Sep-11 23:14 UTC. Time now 2019-Sep-20 10:18 UTC.
Position N 61°05' E 002°08'.
Warning: this ship's position is 8 days out of date.

Length 108 m; beam 20 m.

Type: Dredging. MMSI: 228207600.

Date/timePositionNaut miles runAvg speedWind from/ knotsBaromVisibWave heightAir tempDewpointWater temp
2019-Sep-11 23:14N 61°05' E 002°08'210.2
2019-Sep-11 23:01N 61°03' E 002°08'25311.0
2019-Sep-11 00:00N 56°51' E 002°46'2911.8
2019-Sep-10 21:30N 56°22' E 002°58'22710.8
2019-Sep-10 00:26N 52°35' E 002°39'613.1
2019-Sep-09 23:59N 52°29' E 002°39'1213.1
2019-Sep-09 23:02N 52°16' E 002°39'113.0
2019-Sep-09 22:59N 52°16' E 002°39'4611.7
2019-Sep-09 19:03N 51°32' E 002°16'111.7
2019-Sep-09 18:58N 51°32' E 002°15'511.4
2019-Sep-09 18:30N 51°28' E 002°09'511.1
2019-Sep-09 18:01N 51°23' E 002°04'611.0
2019-Sep-09 17:30N 51°19' E 001°58'510.9
2019-Sep-09 17:00N 51°15' E 001°52'510.8
2019-Sep-09 16:30N 51°11' E 001°46'510.8
2019-Sep-09 16:01N 51°07' E 001°41'510.8
2019-Sep-09 15:30N 51°02' E 001°36'511.0
2019-Sep-09 15:00N 50°58' E 001°31'611.1
2019-Sep-09 14:30N 50°53' E 001°26'911.4
2019-Sep-09 13:44N 50°45' E 001°23'10211.6
2019-Sep-09 04:53N 50°07' W 001°07'513.6
2019-Sep-09 04:30N 50°05' W 001°15'713.8
2019-Sep-09 04:00N 50°03' W 001°25'713.8
2019-Sep-09 03:30N 50°02' W 001°35'713.6
2019-Sep-09 03:01N 50°00' W 001°46'115 9.3
2019-Sep-08 14:35N 49°02' W 004°19'60 2.2
2019-Sep-07 11:59N 48°28' W 005°33'5 9.8
2019-Sep-07 11:30N 48°25' W 005°27'910.1
2019-Sep-07 10:35N 48°20' W 005°16'110.5
2019-Sep-07 10:30N 48°19' W 005°15'510.5
2019-Sep-07 10:01N 48°16' W 005°09'510.3
2019-Sep-07 09:30N 48°16' W 005°01'510.8
2019-Sep-07 09:00N 48°16' W 004°53'511.0
2019-Sep-07 08:30N 48°17' W 004°45'510.8
2019-Sep-07 08:01N 48°19' W 004°37'5 9.4
2019-Sep-07 07:31N 48°21' W 004°31'2 4.5
2019-Sep-07 06:59N 48°23' W 004°29'0 0.0
2019-Sep-07 06:29N 48°23' W 004°29'0 0.0
2019-Sep-07 05:59N 48°23' W 004°29'0 0.0
2019-Sep-07 05:29N 48°23' W 004°29'0 0.0
2019-Sep-07 04:59N 48°23' W 004°29'0 0.0
2019-Sep-07 04:29N 48°23' W 004°29'0 0.0
2019-Sep-07 03:59N 48°23' W 004°29'0 0.0
2019-Sep-07 03:29N 48°23' W 004°29'0 0.0
2019-Sep-07 02:59N 48°23' W 004°29'0 0.0
2019-Sep-07 02:29N 48°23' W 004°29'0 0.0
2019-Sep-07 01:59N 48°23' W 004°29'0 0.0
2019-Sep-07 01:29N 48°23' W 004°29'0 0.0
2019-Sep-07 00:59N 48°23' W 004°29'0 0.0
2019-Sep-07 00:29N 48°23' W 004°29'0 0.0
2019-Sep-06 23:59N 48°23' W 004°29'0 0.0
2019-Sep-06 23:29N 48°23' W 004°29'0 0.0
2019-Sep-06 22:59N 48°23' W 004°29'0 0.0
2019-Sep-06 22:29N 48°23' W 004°29'0 0.0
2019-Sep-06 21:59N 48°23' W 004°29'0 0.0
2019-Sep-06 21:28N 48°23' W 004°29'0 0.0
2019-Sep-06 20:59N 48°23' W 004°29'0 0.0
2019-Sep-06 20:28N 48°23' W 004°29'0 0.0
2019-Sep-06 19:59N 48°23' W 004°29'0 0.0
2019-Sep-06 19:28N 48°23' W 004°29'0 0.0
2019-Sep-06 18:58N 48°23' W 004°29'0 0.0
2019-Sep-06 18:28N 48°23' W 004°29'0 0.0
2019-Sep-06 17:58N 48°23' W 004°29'0 0.0
2019-Sep-06 17:28N 48°23' W 004°29'0 0.0
2019-Sep-06 16:58N 48°23' W 004°29'0 0.0
2019-Sep-06 16:28N 48°23' W 004°29'0 0.0
2019-Sep-06 15:58N 48°23' W 004°29'0 0.0
2019-Sep-06 15:28N 48°23' W 004°29'0 0.0
2019-Sep-06 14:58N 48°23' W 004°29'0 0.0
2019-Sep-06 14:28N 48°23' W 004°29'0 0.0
2019-Sep-06 13:58N 48°23' W 004°29'0 0.0
2019-Sep-06 13:28N 48°23' W 004°29'0 0.0
2019-Sep-06 12:58N 48°23' W 004°29'0 0.0
2019-Sep-06 12:28N 48°23' W 004°29'0 0.0
2019-Sep-06 11:58N 48°23' W 004°29'0 0.0
2019-Sep-06 11:28N 48°23' W 004°29'0 0.0
2019-Sep-06 10:58N 48°23' W 004°29'0 0.0
2019-Sep-06 10:28N 48°23' W 004°29'0 0.0
2019-Sep-06 09:58N 48°23' W 004°29'0 0.0
2019-Sep-06 09:28N 48°23' W 004°29'0 0.0
2019-Sep-06 08:58N 48°23' W 004°29'0 0.0
2019-Sep-06 08:28N 48°23' W 004°29'0 0.0
2019-Sep-06 07:58N 48°23' W 004°29'0 0.0
2019-Sep-06 07:28N 48°23' W 004°29'0 0.0
2019-Sep-06 06:58N 48°23' W 004°29'0 0.0
2019-Sep-06 06:28N 48°23' W 004°29'0 0.0
2019-Sep-06 05:58N 48°23' W 004°29'0 0.0
2019-Sep-06 05:28N 48°23' W 004°29'0 0.0
2019-Sep-06 04:58N 48°23' W 004°29'0 0.0
2019-Sep-06 04:28N 48°23' W 004°29'0 0.0
2019-Sep-06 03:58N 48°23' W 004°29'0 0.0
2019-Sep-06 03:28N 48°23' W 004°29'0 0.0
2019-Sep-06 02:58N 48°23' W 004°29'0 0.0
2019-Sep-06 02:28N 48°23' W 004°29'0 0.0
2019-Sep-06 01:58N 48°23' W 004°29'0 0.0
2019-Sep-06 01:28N 48°23' W 004°29'0 0.0
2019-Sep-06 00:58N 48°23' W 004°29'0 0.0
2019-Sep-06 00:28N 48°23' W 004°29'0 0.0
2019-Sep-05 23:58N 48°23' W 004°29'0 0.0
2019-Sep-05 23:28N 48°23' W 004°29'0 0.0
2019-Sep-05 22:58N 48°23' W 004°29'0 0.0
2019-Sep-05 22:28N 48°23' W 004°29'0 0.0
2019-Sep-05 21:58N 48°23' W 004°29'0 0.0
2019-Sep-05 21:28N 48°23' W 004°29'0 0.0
2019-Sep-05 20:58N 48°23' W 004°29'0 0.0
2019-Sep-05 20:28N 48°23' W 004°29'0 0.0
2019-Sep-05 19:58N 48°23' W 004°29'0 0.0
2019-Sep-05 19:28N 48°23' W 004°29'0 0.0
2019-Sep-05 18:58N 48°23' W 004°29'0 0.0
2019-Sep-05 18:28N 48°23' W 004°29'0 0.0
2019-Sep-05 17:58N 48°23' W 004°29'0 0.0
2019-Sep-05 17:28N 48°23' W 004°29'0 0.0
2019-Sep-05 16:58N 48°23' W 004°29'0 0.0
2019-Sep-05 16:28N 48°23' W 004°29'0 0.0
2019-Sep-05 15:58N 48°23' W 004°29'0 0.0
2019-Sep-05 15:28N 48°23' W 004°29'0 0.0
2019-Sep-05 14:58N 48°23' W 004°29'0 0.0
2019-Sep-05 14:28N 48°23' W 004°29'0 0.0
2019-Sep-05 13:58N 48°23' W 004°29'0 0.0
2019-Sep-05 13:28N 48°23' W 004°29'0 0.0
2019-Sep-05 12:58N 48°23' W 004°29'0 0.0
2019-Sep-05 12:28N 48°23' W 004°29'0 0.0
2019-Sep-05 11:58N 48°23' W 004°29'0 0.0
2019-Sep-05 11:28N 48°23' W 004°29'0 0.0
2019-Sep-05 10:58N 48°23' W 004°29'0 0.0
2019-Sep-05 10:28N 48°23' W 004°29'0 0.0
2019-Sep-05 09:58N 48°23' W 004°29'0 0.0
2019-Sep-05 09:28N 48°23' W 004°29'0 0.0
2019-Sep-05 08:58N 48°23' W 004°29'0 0.0
2019-Sep-05 08:28N 48°23' W 004°29'0 0.0
2019-Sep-05 07:58N 48°23' W 004°29'0 0.0
2019-Sep-05 07:28N 48°23' W 004°29'0 0.0
2019-Sep-05 06:55N 48°23' W 004°29'0 0.0
2019-Sep-05 06:28N 48°23' W 004°29'0 0.0
2019-Sep-05 05:58N 48°23' W 004°29'0 0.0
2019-Sep-05 05:28N 48°23' W 004°29'0 0.0
2019-Sep-05 04:58N 48°23' W 004°29'0 0.0
2019-Sep-05 04:28N 48°23' W 004°29'0 0.0
2019-Sep-05 03:58N 48°23' W 004°29'0 0.0
2019-Sep-05 03:28N 48°23' W 004°29'0 0.0
2019-Sep-05 02:58N 48°23' W 004°29'0 0.0
2019-Sep-05 01:58N 48°23' W 004°29'0 0.0
2019-Sep-05 01:28N 48°23' W 004°29'0 0.0
2019-Sep-05 00:58N 48°23' W 004°29'0 0.0
2019-Sep-05 00:28N 48°23' W 004°29'0 0.0
2019-Sep-04 23:58N 48°23' W 004°29'0 0.0
2019-Sep-04 23:28N 48°23' W 004°29'0 0.0
2019-Sep-04 22:58N 48°23' W 004°29'0 0.0
2019-Sep-04 22:28N 48°23' W 004°29'0 0.0
2019-Sep-04 21:58N 48°23' W 004°29'0 0.0
2019-Sep-04 21:28N 48°23' W 004°29'0 0.0
2019-Sep-04 20:58N 48°23' W 004°29'0 0.0
2019-Sep-04 20:28N 48°23' W 004°29'0 0.0
2019-Sep-04 19:58N 48°23' W 004°29'0 0.0
2019-Sep-04 19:28N 48°23' W 004°29'0 0.0
2019-Sep-04 18:58N 48°23' W 004°29'0 0.0
2019-Sep-04 18:28N 48°23' W 004°29'0 0.0
2019-Sep-04 17:58N 48°23' W 004°29'0 0.0
2019-Sep-04 17:28N 48°23' W 004°29'0 0.0
2019-Sep-04 16:58N 48°23' W 004°29'0 0.0
2019-Sep-04 16:28N 48°23' W 004°29'0 0.0
2019-Sep-04 15:58N 48°23' W 004°29'0 0.0
2019-Sep-04 15:28N 48°23' W 004°29'0 0.0
2019-Sep-04 14:58N 48°23' W 004°29'0 0.0
2019-Sep-04 14:25N 48°23' W 004°29'0 0.0
2019-Sep-04 13:58N 48°23' W 004°29'0 0.0
2019-Sep-04 13:28N 48°23' W 004°29'0 0.0
2019-Sep-04 12:58N 48°23' W 004°29'0 0.0
2019-Sep-04 12:28N 48°23' W 004°29'0 0.0
2019-Sep-04 11:58N 48°23' W 004°29'0 0.0
2019-Sep-04 11:28N 48°23' W 004°29'0 0.0
2019-Sep-04 10:58N 48°23' W 004°29'0 0.0
2019-Sep-04 10:28N 48°23' W 004°29'0 0.0
2019-Sep-04 09:58N 48°23' W 004°29'0 0.0
2019-Sep-04 09:28N 48°23' W 004°29'0 0.0
2019-Sep-04 08:58N 48°23' W 004°29'0 0.0
2019-Sep-04 08:28N 48°23' W 004°29'0 0.0
2019-Sep-04 07:58N 48°23' W 004°29'0 0.0
2019-Sep-04 07:28N 48°23' W 004°29'0 0.0
2019-Sep-04 06:58N 48°23' W 004°29'0 0.0
2019-Sep-04 06:28N 48°23' W 004°29'0 0.0
2019-Sep-04 05:58N 48°23' W 004°29'0 0.0
2019-Sep-04 05:28N 48°23' W 004°29'0 0.0
2019-Sep-04 04:58N 48°23' W 004°29'0 0.0
2019-Sep-04 04:28N 48°23' W 004°29'0 0.0
2019-Sep-04 03:58N 48°23' W 004°29'0 0.0
2019-Sep-04 03:28N 48°23' W 004°29'0 0.0
2019-Sep-04 02:58N 48°23' W 004°29'0 0.0
2019-Sep-04 02:28N 48°23' W 004°29'0 0.0
2019-Sep-04 01:58N 48°23' W 004°29'0 0.0
2019-Sep-04 01:28N 48°23' W 004°29'0 0.0
2019-Sep-04 00:58N 48°23' W 004°29'0 0.0
2019-Sep-04 00:28N 48°23' W 004°29'0 0.0
2019-Sep-03 23:58N 48°23' W 004°29'0 0.0
2019-Sep-03 23:28N 48°23' W 004°29'0 0.0
2019-Sep-03 22:58N 48°23' W 004°29'0 0.0
2019-Sep-03 22:28N 48°23' W 004°29'0 0.0
2019-Sep-03 21:58N 48°23' W 004°29'0 0.0
2019-Sep-03 21:28N 48°23' W 004°29'0 0.0
2019-Sep-03 20:58N 48°23' W 004°29'0 0.0
2019-Sep-03 20:28N 48°23' W 004°29'0 0.0
2019-Sep-03 19:58N 48°23' W 004°29'0 0.0
2019-Sep-03 19:28N 48°23' W 004°29'0 0.0
2019-Sep-03 18:58N 48°23' W 004°29'0 0.0
2019-Sep-03 18:28N 48°23' W 004°29'0 0.0
2019-Sep-03 17:58N 48°23' W 004°29'0 0.0
2019-Sep-03 17:28N 48°23' W 004°29'0 0.0
2019-Sep-03 16:58N 48°23' W 004°29'0 0.6
2019-Sep-03 16:30N 48°23' W 004°29'4 7.5
2019-Sep-03 16:00N 48°21' W 004°34'715.0
2019-Sep-03 15:30N 48°18' W 004°44'714.0
2019-Sep-03 15:00N 48°14' W 004°53'714.2
2019-Sep-03 14:30N 48°09' W 005°01'714.0
2019-Sep-03 14:00N 48°05' W 005°09'713.3
2019-Sep-03 13:30N 48°01' W 005°17'612.7
2019-Sep-03 13:00N 47°57' W 005°24'712.6
2019-Sep-03 12:29N 47°52' W 005°32'613.1
2019-Sep-03 12:00N 47°48' W 005°38'712.1
2019-Sep-03 11:26N 47°43' W 005°46'512.1
2019-Sep-03 11:00N 47°40' W 005°52'612.8
2019-Sep-03 10:30N 47°36' W 005°59'612.5
2019-Sep-03 10:00N 47°32' W 006°06'712.0
2019-Sep-03 09:27N 47°27' W 006°13'613.0
2019-Sep-03 09:00N 47°23' W 006°20'713.6
2019-Sep-03 08:30N 47°19' W 006°27'714.1
2019-Sep-03 08:00N 47°14' W 006°35'713.7
2019-Sep-03 07:30N 47°09' W 006°42'713.5
2019-Sep-03 07:00N 47°05' W 006°50'713.5
2019-Sep-03 06:30N 47°01' W 006°57'713.4
2019-Sep-03 06:00N 46°56' W 007°05'613.1
2019-Sep-03 05:30N 46°52' W 007°12'812.9
2019-Sep-03 04:51N 46°46' W 007°21'813.1
2019-Sep-03 04:13N 46°41' W 007°30'313.6
2019-Sep-03 04:00N 46°39' W 007°33'1313.6
2019-Sep-03 03:01N 46°30' W 007°48'1114.3
2019-Sep-03 02:17N 46°23' W 007°59'  

Dump ship's entire track history